sensor_id;sensor_type;location;lat;lon;timestamp;temperature;humidity
14604;DHT22;7388;51.078;13.740;2024-01-15T00:00:01;5.80;40.10
14604;DHT22;7388;51.078;13.740;2024-01-15T00:02:26;5.80;40.40
14604;DHT22;7388;51.078;13.740;2024-01-15T00:04:52;5.70;40.60
14604;DHT22;7388;51.078;13.740;2024-01-15T00:07:18;5.70;40.20
14604;DHT22;7388;51.078;13.740;2024-01-15T00:09:43;5.80;40.20
14604;DHT22;7388;51.078;13.740;2024-01-15T00:12:09;5.90;40.00
14604;DHT22;7388;51.078;13.740;2024-01-15T00:14:35;6.00;39.70
14604;DHT22;7388;51.078;13.740;2024-01-15T00:17:01;6.00;39.70
14604;DHT22;7388;51.078;13.740;2024-01-15T00:19:26;5.90;39.70
14604;DHT22;7388;51.078;13.740;2024-01-15T00:21:52;5.80;40.00
14604;DHT22;7388;51.078;13.740;2024-01-15T00:24:18;5.90;40.20
14604;DHT22;7388;51.078;13.740;2024-01-15T00:26:45;5.90;40.20
14604;DHT22;7388;51.078;13.740;2024-01-15T00:29:10;5.90;40.00
14604;DHT22;7388;51.078;13.740;2024-01-15T00:31:36;5.90;40.10
14604;DHT22;7388;51.078;13.740;2024-01-15T00:34:02;5.60;40.70
14604;DHT22;7388;51.078;13.740;2024-01-15T00:36:27;5.60;40.70
14604;DHT22;7388;51.078;13.740;2024-01-15T00:38:54;5.70;40.60
14604;DHT22;7388;51.078;13.740;2024-01-15T00:41:20;5.80;40.10
14604;DHT22;7388;51.078;13.740;2024-01-15T00:43:46;5.90;40.20
14604;DHT22;7388;51.078;13.740;2024-01-15T00:46:12;5.80;40.30
14604;DHT22;7388;51.078;13.740;2024-01-15T00:48:37;5.70;40.60
14604;DHT22;7388;51.078;13.740;2024-01-15T00:51:06;5.70;40.60
14604;DHT22;7388;51.078;13.740;2024-01-15T00:53:32;5.80;40.10
14604;DHT22;7388;51.078;13.740;2024-01-15T00:55:58;5.80;40.10
14604;DHT22;7388;51.078;13.740;2024-01-15T00:58:24;5.70;40.20
14604;DHT22;7388;51.078;13.740;2024-01-15T01:00:49;5.70;40.40
14604;DHT22;7388;51.078;13.740;2024-01-15T01:03:15;5.90;40.20
14604;DHT22;7388;51.078;13.740;2024-01-15T01:05:41;5.90;39.70
14604;DHT22;7388;51.078;13.740;2024-01-15T01:08:07;6.00;39.60
14604;DHT22;7388;51.078;13.740;2024-01-15T01:10:32;5.90;39.40
14604;DHT22;7388;51.078;13.740;2024-01-15T01:12:58;5.70;39.80
14604;DHT22;7388;51.078;13.740;2024-01-15T01:15:24;5.40;40.50
14604;DHT22;7388;51.078;13.740;2024-01-15T01:17:50;5.40;41.00
14604;DHT22;7388;51.078;13.740;2024-01-15T01:20:16;5.40;40.70
14604;DHT22;7388;51.078;13.740;2024-01-15T01:22:42;5.50;40.60
14604;DHT22;7388;51.078;13.740;2024-01-15T01:25:07;5.50;40.50
14604;DHT22;7388;51.078;13.740;2024-01-15T01:27:35;5.50;40.40
14604;DHT22;7388;51.078;13.740;2024-01-15T01:30:01;5.40;40.60
14604;DHT22;7388;51.078;13.740;2024-01-15T01:32:27;5.50;40.30
14604;DHT22;7388;51.078;13.740;2024-01-15T01:34:53;5.60;40.00
14604;DHT22;7388;51.078;13.740;2024-01-15T01:37:19;5.30;40.50
14604;DHT22;7388;51.078;13.740;2024-01-15T01:39:44;5.30;40.90
14604;DHT22;7388;51.078;13.740;2024-01-15T01:42:11;5.40;40.60
14604;DHT22;7388;51.078;13.740;2024-01-15T01:44:37;5.50;40.40
14604;DHT22;7388;51.078;13.740;2024-01-15T01:47:04;5.70;40.10
14604;DHT22;7388;51.078;13.740;2024-01-15T01:49:30;5.80;39.50
14604;DHT22;7388;51.078;13.740;2024-01-15T01:51:58;5.90;39.40
14604;DHT22;7388;51.078;13.740;2024-01-15T01:54:26;5.90;39.10
14604;DHT22;7388;51.078;13.740;2024-01-15T01:56:54;5.70;39.50
14604;DHT22;7388;51.078;13.740;2024-01-15T01:59:20;5.70;39.70
14604;DHT22;7388;51.078;13.740;2024-01-15T02:01:46;5.80;39.50
14604;DHT22;7388;51.078;13.740;2024-01-15T02:04:14;5.70;39.40
14604;DHT22;7388;51.078;13.740;2024-01-15T02:06:40;5.60;39.60
14604;DHT22;7388;51.078;13.740;2024-01-15T02:09:07;5.50;39.60
14604;DHT22;7388;51.078;13.740;2024-01-15T02:11:33;5.50;39.90
14604;DHT22;7388;51.078;13.740;2024-01-15T02:13:59;5.40;39.80
14604;DHT22;7388;51.078;13.740;2024-01-15T02:16:25;5.20;40.20
14604;DHT22;7388;51.078;13.740;2024-01-15T02:18:51;5.40;40.00
14604;DHT22;7388;51.078;13.740;2024-01-15T02:21:17;5.50;39.80
14604;DHT22;7388;51.078;13.740;2024-01-15T02:23:43;5.40;39.80
14604;DHT22;7388;51.078;13.740;2024-01-15T02:26:09;5.30;40.10
14604;DHT22;7388;51.078;13.740;2024-01-15T02:28:35;5.20;40.10
14604;DHT22;7388;51.078;13.740;2024-01-15T02:31:01;5.20;40.30
14604;DHT22;7388;51.078;13.740;2024-01-15T02:33:26;5.20;40.30
14604;DHT22;7388;51.078;13.740;2024-01-15T02:35:52;5.40;39.80
14604;DHT22;7388;51.078;13.740;2024-01-15T02:38:18;5.50;39.60
14604;DHT22;7388;51.078;13.740;2024-01-15T02:40:44;5.50;39.60
14604;DHT22;7388;51.078;13.740;2024-01-15T02:43:10;5.40;39.90
14604;DHT22;7388;51.078;13.740;2024-01-15T02:45:37;5.30;40.00
14604;DHT22;7388;51.078;13.740;2024-01-15T02:48:03;5.20;40.10
14604;DHT22;7388;51.078;13.740;2024-01-15T02:50:29;5.20;40.10
14604;DHT22;7388;51.078;13.740;2024-01-15T02:52:54;5.20;40.30
14604;DHT22;7388;51.078;13.740;2024-01-15T02:55:20;5.20;40.20
14604;DHT22;7388;51.078;13.740;2024-01-15T02:57:47;5.10;40.50
14604;DHT22;7388;51.078;13.740;2024-01-15T03:00:12;5.00;40.50
14604;DHT22;7388;51.078;13.740;2024-01-15T03:02:39;4.90;40.40
14604;DHT22;7388;51.078;13.740;2024-01-15T03:05:06;4.80;40.90
14604;DHT22;7388;51.078;13.740;2024-01-15T03:07:33;4.80;41.00
14604;DHT22;7388;51.078;13.740;2024-01-15T03:09:59;4.80;41.00
14604;DHT22;7388;51.078;13.740;2024-01-15T03:12:25;4.80;41.00
14604;DHT22;7388;51.078;13.740;2024-01-15T03:14:50;4.90;40.90
14604;DHT22;7388;51.078;13.740;2024-01-15T03:17:16;4.80;40.80
14604;DHT22;7388;51.078;13.740;2024-01-15T03:19:42;4.80;40.60
14604;DHT22;7388;51.078;13.740;2024-01-15T03:22:07;4.90;40.60
14604;DHT22;7388;51.078;13.740;2024-01-15T03:24:36;4.80;40.50
14604;DHT22;7388;51.078;13.740;2024-01-15T03:27:02;4.80;40.60
14604;DHT22;7388;51.078;13.740;2024-01-15T03:29:28;4.90;40.60
14604;DHT22;7388;51.078;13.740;2024-01-15T03:31:54;4.90;40.20
14604;DHT22;7388;51.078;13.740;2024-01-15T03:34:20;4.80;40.70
14604;DHT22;7388;51.078;13.740;2024-01-15T03:36:45;4.80;40.70
14604;DHT22;7388;51.078;13.740;2024-01-15T03:39:11;4.90;40.10
14604;DHT22;7388;51.078;13.740;2024-01-15T03:41:37;5.10;39.60
14604;DHT22;7388;51.078;13.740;2024-01-15T03:44:03;4.90;39.90
14604;DHT22;7388;51.078;13.740;2024-01-15T03:46:29;4.90;40.00
14604;DHT22;7388;51.078;13.740;2024-01-15T03:48:54;4.90;40.00
14604;DHT22;7388;51.078;13.740;2024-01-15T03:51:20;4.70;40.60
14604;DHT22;7388;51.078;13.740;2024-01-15T03:53:46;4.80;40.40
14604;DHT22;7388;51.078;13.740;2024-01-15T03:56:13;4.90;39.90
14604;DHT22;7388;51.078;13.740;2024-01-15T03:58:39;4.80;40.20
14604;DHT22;7388;51.078;13.740;2024-01-15T04:01:11;4.80;40.50
14604;DHT22;7388;51.078;13.740;2024-01-15T04:03:37;4.70;40.90
14604;DHT22;7388;51.078;13.740;2024-01-15T04:06:04;4.60;41.20
14604;DHT22;7388;51.078;13.740;2024-01-15T04:08:30;4.70;41.20
14604;DHT22;7388;51.078;13.740;2024-01-15T04:10:55;4.70;41.10
14604;DHT22;7388;51.078;13.740;2024-01-15T04:13:22;4.60;41.20
14604;DHT22;7388;51.078;13.740;2024-01-15T04:15:48;4.50;41.40
14604;DHT22;7388;51.078;13.740;2024-01-15T04:18:15;4.50;41.70
14604;DHT22;7388;51.078;13.740;2024-01-15T04:20:41;4.60;41.20
14604;DHT22;7388;51.078;13.740;2024-01-15T04:23:06;4.60;41.30
14604;DHT22;7388;51.078;13.740;2024-01-15T04:25:32;4.60;41.00
14604;DHT22;7388;51.078;13.740;2024-01-15T04:27:58;4.60;41.10
14604;DHT22;7388;51.078;13.740;2024-01-15T04:30:24;4.50;41.40
14604;DHT22;7388;51.078;13.740;2024-01-15T04:32:50;4.50;41.50
14604;DHT22;7388;51.078;13.740;2024-01-15T04:35:15;4.50;41.50
14604;DHT22;7388;51.078;13.740;2024-01-15T04:37:41;4.60;40.70
14604;DHT22;7388;51.078;13.740;2024-01-15T04:40:07;4.60;40.60
14604;DHT22;7388;51.078;13.740;2024-01-15T04:42:33;4.50;40.70
14604;DHT22;7388;51.078;13.740;2024-01-15T04:44:59;4.40;40.90
14604;DHT22;7388;51.078;13.740;2024-01-15T04:47:25;4.30;41.00
14604;DHT22;7388;51.078;13.740;2024-01-15T04:49:51;4.30;41.20
14604;DHT22;7388;51.078;13.740;2024-01-15T04:52:17;4.30;41.00
14604;DHT22;7388;51.078;13.740;2024-01-15T04:54:42;4.40;40.50
14604;DHT22;7388;51.078;13.740;2024-01-15T04:57:08;4.40;40.60
14604;DHT22;7388;51.078;13.740;2024-01-15T04:59:34;4.20;41.00
14604;DHT22;7388;51.078;13.740;2024-01-15T05:02:00;4.10;41.30
14604;DHT22;7388;51.078;13.740;2024-01-15T05:04:26;4.30;40.80
14604;DHT22;7388;51.078;13.740;2024-01-15T05:06:51;4.30;40.40
14604;DHT22;7388;51.078;13.740;2024-01-15T05:09:17;4.20;40.40
14604;DHT22;7388;51.078;13.740;2024-01-15T05:11:43;4.20;40.40
14604;DHT22;7388;51.078;13.740;2024-01-15T05:14:09;4.10;40.60
14604;DHT22;7388;51.078;13.740;2024-01-15T05:16:35;4.10;40.70
14604;DHT22;7388;51.078;13.740;2024-01-15T05:19:03;4.20;40.70
14604;DHT22;7388;51.078;13.740;2024-01-15T05:21:29;4.20;40.40
14604;DHT22;7388;51.078;13.740;2024-01-15T05:23:55;4.30;40.40
14604;DHT22;7388;51.078;13.740;2024-01-15T05:26:20;4.20;40.60
14604;DHT22;7388;51.078;13.740;2024-01-15T05:28:46;4.10;40.90
14604;DHT22;7388;51.078;13.740;2024-01-15T05:31:12;4.00;41.10
14604;DHT22;7388;51.078;13.740;2024-01-15T05:33:38;4.10;41.20
14604;DHT22;7388;51.078;13.740;2024-01-15T05:36:04;4.10;41.00
14604;DHT22;7388;51.078;13.740;2024-01-15T05:38:30;4.00;41.00
14604;DHT22;7388;51.078;13.740;2024-01-15T05:40:55;3.80;41.00
14604;DHT22;7388;51.078;13.740;2024-01-15T05:43:21;3.80;41.30
14604;DHT22;7388;51.078;13.740;2024-01-15T05:45:47;3.90;41.30
14604;DHT22;7388;51.078;13.740;2024-01-15T05:48:12;3.90;40.80
14604;DHT22;7388;51.078;13.740;2024-01-15T05:50:39;4.00;40.60
14604;DHT22;7388;51.078;13.740;2024-01-15T05:53:04;4.00;40.60
14604;DHT22;7388;51.078;13.740;2024-01-15T05:55:30;4.00;40.60
14604;DHT22;7388;51.078;13.740;2024-01-15T05:57:56;4.10;40.30
14604;DHT22;7388;51.078;13.740;2024-01-15T06:00:22;4.20;40.20
14604;DHT22;7388;51.078;13.740;2024-01-15T06:02:48;4.20;40.00
14604;DHT22;7388;51.078;13.740;2024-01-15T06:05:13;4.30;39.70
14604;DHT22;7388;51.078;13.740;2024-01-15T06:07:39;4.20;39.60
14604;DHT22;7388;51.078;13.740;2024-01-15T06:10:05;4.30;39.60
14604;DHT22;7388;51.078;13.740;2024-01-15T06:12:31;4.30;39.30
14604;DHT22;7388;51.078;13.740;2024-01-15T06:14:59;4.20;39.10
14604;DHT22;7388;51.078;13.740;2024-01-15T06:17:24;4.10;39.50
14604;DHT22;7388;51.078;13.740;2024-01-15T06:19:50;4.20;39.40
14604;DHT22;7388;51.078;13.740;2024-01-15T06:22:16;4.30;39.00
14604;DHT22;7388;51.078;13.740;2024-01-15T06:24:42;4.30;39.00
14604;DHT22;7388;51.078;13.740;2024-01-15T06:27:08;4.40;38.70
14604;DHT22;7388;51.078;13.740;2024-01-15T06:29:36;4.40;38.40
14604;DHT22;7388;51.078;13.740;2024-01-15T06:32:03;4.10;38.50
14604;DHT22;7388;51.078;13.740;2024-01-15T06:34:28;4.50;38.30
14604;DHT22;7388;51.078;13.740;2024-01-15T06:36:54;4.40;38.30
14604;DHT22;7388;51.078;13.740;2024-01-15T06:39:20;4.30;38.40
14604;DHT22;7388;51.078;13.740;2024-01-15T06:41:46;4.20;39.10
14604;DHT22;7388;51.078;13.740;2024-01-15T06:44:12;4.40;38.70
14604;DHT22;7388;51.078;13.740;2024-01-15T06:46:48;4.50;38.30
14604;DHT22;7388;51.078;13.740;2024-01-15T06:49:14;4.50;38.40
14604;DHT22;7388;51.078;13.740;2024-01-15T06:51:40;4.50;38.40
14604;DHT22;7388;51.078;13.740;2024-01-15T06:54:06;4.30;38.70
14604;DHT22;7388;51.078;13.740;2024-01-15T06:56:32;4.40;38.50
14604;DHT22;7388;51.078;13.740;2024-01-15T06:58:58;4.90;38.90
14604;DHT22;7388;51.078;13.740;2024-01-15T07:01:24;4.40;38.30
14604;DHT22;7388;51.078;13.740;2024-01-15T07:03:49;4.40;38.50
14604;DHT22;7388;51.078;13.740;2024-01-15T07:06:15;4.40;38.30
14604;DHT22;7388;51.078;13.740;2024-01-15T07:08:42;4.40;38.20
14604;DHT22;7388;51.078;13.740;2024-01-15T07:11:08;4.40;38.20
14604;DHT22;7388;51.078;13.740;2024-01-15T07:13:35;4.30;38.60
14604;DHT22;7388;51.078;13.740;2024-01-15T07:16:01;4.40;38.40
14604;DHT22;7388;51.078;13.740;2024-01-15T07:18:27;4.50;38.00
14604;DHT22;7388;51.078;13.740;2024-01-15T07:20:53;4.60;37.90
14604;DHT22;7388;51.078;13.740;2024-01-15T07:23:18;4.60;37.80
14604;DHT22;7388;51.078;13.740;2024-01-15T07:25:44;4.60;37.70
14604;DHT22;7388;51.078;13.740;2024-01-15T07:28:10;4.60;37.30
14604;DHT22;7388;51.078;13.740;2024-01-15T07:30:36;4.50;37.80
14604;DHT22;7388;51.078;13.740;2024-01-15T07:33:04;4.50;37.90
14604;DHT22;7388;51.078;13.740;2024-01-15T07:35:30;4.40;37.90
14604;DHT22;7388;51.078;13.740;2024-01-15T07:37:56;4.30;38.60
14604;DHT22;7388;51.078;13.740;2024-01-15T07:40:22;4.20;38.70
14604;DHT22;7388;51.078;13.740;2024-01-15T07:42:48;4.10;38.80
14604;DHT22;7388;51.078;13.740;2024-01-15T07:45:13;4.00;39.00
14604;DHT22;7388;51.078;13.740;2024-01-15T07:47:39;4.10;39.20
14604;DHT22;7388;51.078;13.740;2024-01-15T07:50:05;4.20;39.10
14604;DHT22;7388;51.078;13.740;2024-01-15T07:52:31;4.20;38.80
14604;DHT22;7388;51.078;13.740;2024-01-15T07:54:57;4.20;38.70
14604;DHT22;7388;51.078;13.740;2024-01-15T07:57:25;4.20;38.50
14604;DHT22;7388;51.078;13.740;2024-01-15T07:59:51;4.20;38.70
14604;DHT22;7388;51.078;13.740;2024-01-15T08:02:17;4.20;38.80
14604;DHT22;7388;51.078;13.740;2024-01-15T08:04:43;4.20;38.50
14604;DHT22;7388;51.078;13.740;2024-01-15T08:07:08;4.20;38.40
14604;DHT22;7388;51.078;13.740;2024-01-15T08:09:34;4.30;38.60
14604;DHT22;7388;51.078;13.740;2024-01-15T08:12:00;4.40;38.00
14604;DHT22;7388;51.078;13.740;2024-01-15T08:14:26;4.40;38.20
14604;DHT22;7388;51.078;13.740;2024-01-15T08:16:52;4.30;38.10
14604;DHT22;7388;51.078;13.740;2024-01-15T08:19:18;4.40;38.10
14604;DHT22;7388;51.078;13.740;2024-01-15T08:21:45;4.60;37.70
14604;DHT22;7388;51.078;13.740;2024-01-15T08:24:11;4.70;37.10
14604;DHT22;7388;51.078;13.740;2024-01-15T08:26:37;4.70;37.40
14604;DHT22;7388;51.078;13.740;2024-01-15T08:29:02;4.70;37.40
14604;DHT22;7388;51.078;13.740;2024-01-15T08:31:28;4.50;37.50
14604;DHT22;7388;51.078;13.740;2024-01-15T08:33:54;4.50;37.30
14604;DHT22;7388;51.078;13.740;2024-01-15T08:36:21;4.60;37.60
14604;DHT22;7388;51.078;13.740;2024-01-15T08:38:47;4.60;37.20
14604;DHT22;7388;51.078;13.740;2024-01-15T08:41:13;4.60;37.40
14604;DHT22;7388;51.078;13.740;2024-01-15T08:43:39;4.60;37.20
14604;DHT22;7388;51.078;13.740;2024-01-15T08:46:05;4.70;37.10
14604;DHT22;7388;51.078;13.740;2024-01-15T08:48:31;4.80;36.90
14604;DHT22;7388;51.078;13.740;2024-01-15T08:50:57;4.80;37.20
14604;DHT22;7388;51.078;13.740;2024-01-15T08:53:22;4.80;36.80
14604;DHT22;7388;51.078;13.740;2024-01-15T08:55:48;4.50;37.40
14604;DHT22;7388;51.078;13.740;2024-01-15T08:58:15;4.40;37.50
14604;DHT22;7388;51.078;13.740;2024-01-15T09:00:41;4.60;37.10
14604;DHT22;7388;51.078;13.740;2024-01-15T09:03:07;4.50;38.00
14604;DHT22;7388;51.078;13.740;2024-01-15T09:05:34;4.60;37.20
14604;DHT22;7388;51.078;13.740;2024-01-15T09:08:00;4.60;36.70
14604;DHT22;7388;51.078;13.740;2024-01-15T09:10:26;4.50;37.20
14604;DHT22;7388;51.078;13.740;2024-01-15T09:12:51;4.50;37.30
14604;DHT22;7388;51.078;13.740;2024-01-15T09:15:17;4.50;37.30
14604;DHT22;7388;51.078;13.740;2024-01-15T09:17:43;4.60;37.20
14604;DHT22;7388;51.078;13.740;2024-01-15T09:20:09;4.90;36.80
14604;DHT22;7388;51.078;13.740;2024-01-15T09:22:37;5.20;36.40
14604;DHT22;7388;51.078;13.740;2024-01-15T09:25:04;5.40;35.40
14604;DHT22;7388;51.078;13.740;2024-01-15T09:27:30;5.50;35.50
14604;DHT22;7388;51.078;13.740;2024-01-15T09:29:56;5.70;35.10
14604;DHT22;7388;51.078;13.740;2024-01-15T09:32:22;5.80;34.40
14604;DHT22;7388;51.078;13.740;2024-01-15T09:34:48;5.90;34.10
14604;DHT22;7388;51.078;13.740;2024-01-15T09:37:14;6.00;33.60
14604;DHT22;7388;51.078;13.740;2024-01-15T09:39:41;6.20;33.80
14604;DHT22;7388;51.078;13.740;2024-01-15T09:42:07;6.40;33.30
14604;DHT22;7388;51.078;13.740;2024-01-15T09:44:33;6.70;32.80
14604;DHT22;7388;51.078;13.740;2024-01-15T09:47:00;6.50;32.60
14604;DHT22;7388;51.078;13.740;2024-01-15T09:49:26;6.60;33.60
14604;DHT22;7388;51.078;13.740;2024-01-15T09:51:53;6.60;32.20
14604;DHT22;7388;51.078;13.740;2024-01-15T09:54:19;6.30;32.80
14604;DHT22;7388;51.078;13.740;2024-01-15T09:56:48;6.10;33.30
14604;DHT22;7388;51.078;13.740;2024-01-15T09:59:18;5.90;33.90
14604;DHT22;7388;51.078;13.740;2024-01-15T10:01:47;5.80;34.00
14604;DHT22;7388;51.078;13.740;2024-01-15T10:04:15;5.80;34.20
14604;DHT22;7388;51.078;13.740;2024-01-15T10:06:44;5.70;34.20
14604;DHT22;7388;51.078;13.740;2024-01-15T10:09:13;5.70;34.10
14604;DHT22;7388;51.078;13.740;2024-01-15T10:11:42;5.90;34.00
14604;DHT22;7388;51.078;13.740;2024-01-15T10:14:12;6.20;33.50
14604;DHT22;7388;51.078;13.740;2024-01-15T10:16:41;6.90;32.30
14604;DHT22;7388;51.078;13.740;2024-01-15T10:19:10;7.60;31.00
14604;DHT22;7388;51.078;13.740;2024-01-15T10:21:36;8.10;30.40
14604;DHT22;7388;51.078;13.740;2024-01-15T10:24:03;8.70;28.90
14604;DHT22;7388;51.078;13.740;2024-01-15T10:26:30;9.40;28.50
14604;DHT22;7388;51.078;13.740;2024-01-15T10:28:56;9.70;27.10
14604;DHT22;7388;51.078;13.740;2024-01-15T10:31:23;9.80;26.50
14604;DHT22;7388;51.078;13.740;2024-01-15T10:33:49;9.50;26.80
14604;DHT22;7388;51.078;13.740;2024-01-15T10:36:16;9.50;27.20
14604;DHT22;7388;51.078;13.740;2024-01-15T10:38:46;9.80;26.80
14604;DHT22;7388;51.078;13.740;2024-01-15T10:41:12;9.90;26.20
14604;DHT22;7388;51.078;13.740;2024-01-15T10:43:38;9.30;26.70
14604;DHT22;7388;51.078;13.740;2024-01-15T10:46:04;8.60;28.10
14604;DHT22;7388;51.078;13.740;2024-01-15T10:48:30;7.80;29.00
14604;DHT22;7388;51.078;13.740;2024-01-15T10:50:57;7.30;30.30
14604;DHT22;7388;51.078;13.740;2024-01-15T10:53:26;6.90;31.50
14604;DHT22;7388;51.078;13.740;2024-01-15T10:55:53;7.10;31.60
14604;DHT22;7388;51.078;13.740;2024-01-15T10:58:20;7.40;31.00
14604;DHT22;7388;51.078;13.740;2024-01-15T11:00:47;7.80;30.40
14604;DHT22;7388;51.078;13.740;2024-01-15T11:03:13;8.10;29.00
14604;DHT22;7388;51.078;13.740;2024-01-15T11:05:42;7.90;29.40
14604;DHT22;7388;51.078;13.740;2024-01-15T11:08:08;7.50;29.90
14604;DHT22;7388;51.078;13.740;2024-01-15T11:10:38;7.80;30.50
14604;DHT22;7388;51.078;13.740;2024-01-15T11:16:06;8.00;29.10
14604;DHT22;7388;51.078;13.740;2024-01-15T11:18:38;7.90;30.00
14604;DHT22;7388;51.078;13.740;2024-01-15T11:23:53;7.50;30.40
14604;DHT22;7388;51.078;13.740;2024-01-15T11:26:29;7.40;30.20
14604;DHT22;7388;51.078;13.740;2024-01-15T11:28:55;7.40;30.40
14604;DHT22;7388;51.078;13.740;2024-01-15T11:31:30;7.20;30.30
14604;DHT22;7388;51.078;13.740;2024-01-15T11:34:12;6.80;31.00
14604;DHT22;7388;51.078;13.740;2024-01-15T11:42:03;6.60;32.60
14604;DHT22;7388;51.078;13.740;2024-01-15T11:44:30;6.70;32.00
14604;DHT22;7388;51.078;13.740;2024-01-15T11:52:17;7.00;32.10
14604;DHT22;7388;51.078;13.740;2024-01-15T11:57:37;7.30;31.20
14604;DHT22;7388;51.078;13.740;2024-01-15T12:00:09;7.20;31.00
14604;DHT22;7388;51.078;13.740;2024-01-15T12:02:35;7.00;31.80
14604;DHT22;7388;51.078;13.740;2024-01-15T12:05:01;7.00;31.40
14604;DHT22;7388;51.078;13.740;2024-01-15T12:07:27;6.90;32.30
14604;DHT22;7388;51.078;13.740;2024-01-15T12:09:52;6.80;31.90
14604;DHT22;7388;51.078;13.740;2024-01-15T12:12:27;6.90;31.90
14604;DHT22;7388;51.078;13.740;2024-01-15T12:14:54;6.80;32.40
14604;DHT22;7388;51.078;13.740;2024-01-15T12:17:20;6.80;32.70
14604;DHT22;7388;51.078;13.740;2024-01-15T12:19:46;6.60;32.90
14604;DHT22;7388;51.078;13.740;2024-01-15T12:22:12;5.90;33.60
14604;DHT22;7388;51.078;13.740;2024-01-15T12:24:38;6.30;34.00
14604;DHT22;7388;51.078;13.740;2024-01-15T12:27:04;6.20;34.20
14604;DHT22;7388;51.078;13.740;2024-01-15T12:29:30;6.20;34.70
14604;DHT22;7388;51.078;13.740;2024-01-15T12:31:57;6.10;34.80
14604;DHT22;7388;51.078;13.740;2024-01-15T12:34:22;6.00;34.90
14604;DHT22;7388;51.078;13.740;2024-01-15T12:36:48;6.10;34.90
14604;DHT22;7388;51.078;13.740;2024-01-15T12:39:15;6.20;35.00
14604;DHT22;7388;51.078;13.740;2024-01-15T12:41:41;6.40;34.50
14604;DHT22;7388;51.078;13.740;2024-01-15T12:44:07;6.50;34.40
14604;DHT22;7388;51.078;13.740;2024-01-15T12:46:33;6.50;34.60
14604;DHT22;7388;51.078;13.740;2024-01-15T12:49:00;6.30;35.00
14604;DHT22;7388;51.078;13.740;2024-01-15T12:51:26;6.30;35.20
14604;DHT22;7388;51.078;13.740;2024-01-15T12:53:52;6.20;35.40
14604;DHT22;7388;51.078;13.740;2024-01-15T12:56:18;6.10;35.80
14604;DHT22;7388;51.078;13.740;2024-01-15T12:58:44;5.90;36.80
14604;DHT22;7388;51.078;13.740;2024-01-15T13:01:10;6.00;37.30
14604;DHT22;7388;51.078;13.740;2024-01-15T13:03:36;5.80;37.30
14604;DHT22;7388;51.078;13.740;2024-01-15T13:06:01;5.90;37.40
14604;DHT22;7388;51.078;13.740;2024-01-15T13:08:27;5.90;37.30
14604;DHT22;7388;51.078;13.740;2024-01-15T13:10:55;5.80;37.50
14604;DHT22;7388;51.078;13.740;2024-01-15T13:13:22;5.90;37.40
14604;DHT22;7388;51.078;13.740;2024-01-15T13:15:48;6.00;37.40
14604;DHT22;7388;51.078;13.740;2024-01-15T13:18:14;6.20;36.70
14604;DHT22;7388;51.078;13.740;2024-01-15T13:20:40;6.30;36.50
14604;DHT22;7388;51.078;13.740;2024-01-15T13:23:05;6.30;36.50
14604;DHT22;7388;51.078;13.740;2024-01-15T13:25:31;6.40;36.60
14604;DHT22;7388;51.078;13.740;2024-01-15T13:27:59;6.40;36.30
14604;DHT22;7388;51.078;13.740;2024-01-15T13:30:25;6.40;36.50
14604;DHT22;7388;51.078;13.740;2024-01-15T13:32:51;6.60;36.00
14604;DHT22;7388;51.078;13.740;2024-01-15T13:35:17;6.90;35.50
14604;DHT22;7388;51.078;13.740;2024-01-15T13:37:43;6.70;35.70
14604;DHT22;7388;51.078;13.740;2024-01-15T13:40:09;6.50;36.40
14604;DHT22;7388;51.078;13.740;2024-01-15T13:42:41;6.20;37.00
14604;DHT22;7388;51.078;13.740;2024-01-15T13:45:07;6.20;37.40
14604;DHT22;7388;51.078;13.740;2024-01-15T13:47:33;6.00;38.00
14604;DHT22;7388;51.078;13.740;2024-01-15T13:49:59;5.90;38.60
14604;DHT22;7388;51.078;13.740;2024-01-15T13:52:25;5.70;39.90
14604;DHT22;7388;51.078;13.740;2024-01-15T13:54:53;5.40;41.20
14604;DHT22;7388;51.078;13.740;2024-01-15T13:57:19;5.30;41.80
14604;DHT22;7388;51.078;13.740;2024-01-15T13:59:45;5.30;42.20
14604;DHT22;7388;51.078;13.740;2024-01-15T14:02:10;5.10;43.00
14604;DHT22;7388;51.078;13.740;2024-01-15T14:04:37;5.10;43.80
14604;DHT22;7388;51.078;13.740;2024-01-15T14:07:03;5.10;44.30
14604;DHT22;7388;51.078;13.740;2024-01-15T14:09:29;5.00;44.50
14604;DHT22;7388;51.078;13.740;2024-01-15T14:11:57;5.10;44.40
14604;DHT22;7388;51.078;13.740;2024-01-15T14:14:23;5.30;43.70
14604;DHT22;7388;51.078;13.740;2024-01-15T14:16:49;5.30;42.90
14604;DHT22;7388;51.078;13.740;2024-01-15T14:19:15;5.40;42.80
14604;DHT22;7388;51.078;13.740;2024-01-15T14:21:41;5.30;42.70
14604;DHT22;7388;51.078;13.740;2024-01-15T14:24:07;5.30;43.40
14604;DHT22;7388;51.078;13.740;2024-01-15T14:26:33;5.30;42.80
14604;DHT22;7388;51.078;13.740;2024-01-15T14:28:59;5.30;42.50
14604;DHT22;7388;51.078;13.740;2024-01-15T14:31:24;5.30;42.50
14604;DHT22;7388;51.078;13.740;2024-01-15T14:33:52;5.20;42.80
14604;DHT22;7388;51.078;13.740;2024-01-15T14:36:18;5.20;42.60
14604;DHT22;7388;51.078;13.740;2024-01-15T14:38:44;5.30;42.50
14604;DHT22;7388;51.078;13.740;2024-01-15T14:41:09;5.30;42.70
14604;DHT22;7388;51.078;13.740;2024-01-15T14:43:35;5.20;42.90
14604;DHT22;7388;51.078;13.740;2024-01-15T14:46:01;5.10;43.10
14604;DHT22;7388;51.078;13.740;2024-01-15T14:48:26;5.20;43.00
14604;DHT22;7388;51.078;13.740;2024-01-15T14:50:52;5.20;43.30
14604;DHT22;7388;51.078;13.740;2024-01-15T14:53:18;5.20;43.90
14604;DHT22;7388;51.078;13.740;2024-01-15T14:55:44;5.00;45.10
14604;DHT22;7388;51.078;13.740;2024-01-15T14:58:09;5.00;45.00
14604;DHT22;7388;51.078;13.740;2024-01-15T15:00:35;5.00;45.50
14604;DHT22;7388;51.078;13.740;2024-01-15T15:03:01;4.90;45.90
14604;DHT22;7388;51.078;13.740;2024-01-15T15:05:27;4.90;45.60
14604;DHT22;7388;51.078;13.740;2024-01-15T15:07:53;5.00;45.60
14604;DHT22;7388;51.078;13.740;2024-01-15T15:10:19;5.00;45.50
14604;DHT22;7388;51.078;13.740;2024-01-15T15:12:45;5.10;45.60
14604;DHT22;7388;51.078;13.740;2024-01-15T15:15:10;5.00;45.70
14604;DHT22;7388;51.078;13.740;2024-01-15T15:17:39;5.00;45.20
14604;DHT22;7388;51.078;13.740;2024-01-15T15:20:06;5.10;45.50
14604;DHT22;7388;51.078;13.740;2024-01-15T15:22:32;5.10;45.10
14604;DHT22;7388;51.078;13.740;2024-01-15T15:24:58;5.10;45.20
14604;DHT22;7388;51.078;13.740;2024-01-15T15:27:24;5.10;44.70
14604;DHT22;7388;51.078;13.740;2024-01-15T15:29:50;5.10;44.80
14604;DHT22;7388;51.078;13.740;2024-01-15T15:32:16;5.10;44.70
14604;DHT22;7388;51.078;13.740;2024-01-15T15:34:42;5.00;44.40
14604;DHT22;7388;51.078;13.740;2024-01-15T15:37:07;5.10;44.30
14604;DHT22;7388;51.078;13.740;2024-01-15T15:39:33;5.00;44.10
14604;DHT22;7388;51.078;13.740;2024-01-15T15:41:59;5.00;44.10
14604;DHT22;7388;51.078;13.740;2024-01-15T15:44:24;5.00;44.00
14604;DHT22;7388;51.078;13.740;2024-01-15T15:46:50;5.00;43.80
14604;DHT22;7388;51.078;13.740;2024-01-15T15:49:16;5.00;43.90
14604;DHT22;7388;51.078;13.740;2024-01-15T15:51:42;5.00;43.80
14604;DHT22;7388;51.078;13.740;2024-01-15T15:54:08;5.00;43.60
14604;DHT22;7388;51.078;13.740;2024-01-15T15:56:34;5.00;43.80